Latest Weather Observations for Trangie

IDN60801

Issued at 12:03 pm EST Friday 27 May 2016 (issued every 30 minutes, with the page automatically refreshed every 10 minutes)

About weather observations | Map of weather stations | Latest weather observations for NSW | Other Formats
Station Details ID: 051049 Name: TRANGIE RESEARCH STATION AWS Lat: -31.99 Lon: 147.95 Height: 215.0 m
Data from the previous 72 hours. | See also: Recent months at Trangie
Date/Time
EST
Temp
°C
App
Temp
°C
Dew
Point
Rel
Hum
%
Delta-T
°C
Wind Press
QNH
hPa
Press
MSL
hPa
Rain
since 9 am
mm
Dir
 
Spd
km/h
Gust
km/h
Spd
kts
Gust
kts
27/12:00pm 14.4 8.7 6.7 60 3.8 WSW 26 26 14 14 1011.1 1011.0 -
27/11:30am 14.0 8.9 7.5 65 3.2 WSW 24 32 13 17 1011.5 1011.4 0.0
27/11:00am 13.5 8.7 7.3 66 3.1 WSW 22 28 12 15 1011.9 1011.8 0.0
27/10:30am 12.8 8.5 7.9 72 2.4 WSW 20 26 11 14 1012.2 1012.1 0.0
27/10:00am 11.9 7.8 7.8 76 2.0 WSW 19 22 10 12 1012.2 1012.1 0.0
27/09:30am 11.2 7.5 8.1 81 1.5 W 17 20 9 11 1012.1 1012.0 0.0
27/09:00am 10.3 6.6 8.1 86 1.1 W 17 20 9 11 1011.9 1011.8 0.2
27/08:30am 9.5 6.5 7.8 89 0.8 W 13 17 7 9 1011.7 1011.6 -
27/08:00am 8.2 5.1 7.1 93 0.5 WNW 13 15 7 8 1011.3 1011.2 -
27/07:30am 6.9 4.3 6.2 95 0.3 WNW 9 11 5 6 1011.2 1011.1 -
27/07:00am 6.3 3.6 5.4 94 0.4 W 9 11 5 6 1011.0 1010.9 -
27/06:30am 6.7 3.7 5.8 94 0.4 W 11 13 6 7 1010.8 1010.7 -
27/06:00am 6.6 3.5 5.6 93 0.5 W 11 13 6 7 1010.6 1010.5 -
27/05:30am 7.0 4.0 6.1 94 0.4 W 11 15 6 8 1010.5 1010.4 -
27/05:00am 6.5 3.4 5.5 93 0.4 W 11 13 6 7 1010.1 1009.9 -
27/04:30am 6.9 4.2 5.7 92 0.5 W 9 13 5 7 1009.8 1009.6 -
27/04:00am 7.8 4.6 6.7 93 0.5 W 13 15 7 8 1009.8 1009.6 -
27/03:30am 8.0 5.6 6.8 92 0.6 W 9 11 5 6 1009.8 1009.6 -
27/03:00am 7.9 5.8 6.5 91 0.7 W 7 11 4 6 1009.5 1009.3 0.0
27/02:30am 8.8 6.5 7.3 90 0.7 W 9 11 5 6 1009.7 1009.5 -
27/02:00am 9.5 6.9 7.8 89 0.8 W 11 13 6 7 1009.6 1009.4 -
27/01:30am 10.4 7.7 8.8 90 0.8 WSW 13 17 7 9 1009.2 1009.0 -
27/01:00am 10.8 7.9 9.6 92 0.6 WSW 15 19 8 10 1009.1 1008.9 -
27/12:30am 10.8 9.1 9.7 93 0.6 WSW 9 13 5 7 1009.0 1008.8 -
27/12:00am 11.0 9.3 9.8 92 0.6 WSW 9 13 5 7 1009.1 1008.9 -
 
Date/Time
EST
Temp
°C
App
Temp
°C
Dew
Point
Rel
Hum
%
Delta-T
°C
Wind Press
QNH
hPa
Press
MSL
hPa
Rain
since 9 am
mm
Dir
 
Spd
km/h
Gust
km/h
Spd
kts
Gust
kts
26/11:30pm 11.5 9.5 10.1 91 0.7 SW 11 15 6 8 1009.2 1009.0 -
26/11:00pm 12.1 9.1 10.7 91 0.7 SW 17 20 9 11 1008.9 1008.7 -
26/10:30pm 12.1 9.9 10.8 92 0.7 WSW 13 19 7 10 1008.9 1008.7 -
26/10:00pm 12.3 9.8 11.2 93 0.6 WSW 15 17 8 9 1008.7 1008.5 -
26/09:30pm 12.4 10.3 11.3 93 0.6 WSW 13 15 7 8 1008.7 1008.5 -
26/09:00pm 12.1 10.3 11.0 93 0.6 W 11 13 6 7 1008.8 1008.6 0.0
26/08:30pm 12.6 10.6 11.5 93 0.6 W 13 17 7 9 1008.6 1008.4 -
26/08:00pm 12.8 11.6 11.7 93 0.6 WNW 9 11 5 6 1008.3 1008.2 -
26/07:30pm 13.2 11.8 12.1 93 0.6 NW 11 13 6 7 1008.0 1007.9 -
26/07:00pm 13.6 12.7 12.5 93 0.6 NW 9 13 5 7 1007.9 1007.8 -
26/06:30pm 13.3 11.5 12.2 93 0.6 NW 13 15 7 8 1007.5 1007.4 -
26/06:00pm 13.0 11.7 11.1 88 1.0 NW 9 11 5 6 1007.0 1006.9 -
26/05:30pm 14.5 11.6 12.2 86 1.3 NW 19 22 10 12 1006.7 1006.6 -
26/05:00pm 15.2 12.7 12.2 82 1.7 NW 17 24 9 13 1006.5 1006.4 -
26/04:30pm 15.3 12.3 12.1 81 1.8 NW 19 24 10 13 1006.4 1006.2 -
26/04:00pm 15.5 12.6 12.3 81 1.8 NW 19 26 10 14 1006.0 1005.8 -
26/03:30pm 15.8 12.6 12.0 78 2.1 NW 20 26 11 14 1005.9 1005.7 -
26/03:00pm 15.6 12.6 11.8 78 2.1 NW 19 26 10 14 1006.1 1005.9 -
26/02:30pm 15.7 12.1 11.7 77 2.2 NNW 22 28 12 15 1006.1 1005.9 -
26/02:00pm 15.8 12.2 11.8 77 2.2 NNW 22 28 12 15 1006.1 1005.9 -
26/01:30pm 16.2 11.4 11.8 75 2.4 NW 28 35 15 19 1006.5 1006.4 -
26/01:00pm 15.3 - 10.7 74 2.5 - - - - - 1006.7 1006.6 -
26/12:30pm 14.5 9.7 10.3 76 2.2 NNW 26 35 14 19 1006.8 1006.7 0.2
26/12:00pm 14.6 10.0 9.6 72 2.6 N 24 35 13 19 1006.9 1006.8 0.2
26/11:30am - - - - - N 22 35 12 19 1008.3 1008.2 0.2
26/11:00am 13.8 9.6 9.6 76 2.2 N 22 32 12 17 1008.3 1008.2 0.2
26/10:30am 13.5 9.5 9.0 74 2.3 N 20 30 11 16 1009.0 1008.8 0.2
26/10:00am 13.0 10.0 9.4 79 1.9 N 15 24 8 13 1009.3 1009.1 0.2
26/09:30am 11.4 8.0 9.3 87 1.1 N 17 30 9 16 1009.8 1009.6 0.2
26/09:00am 10.3 6.8 8.9 91 0.7 NNE 17 30 9 16 1009.8 1009.6 8.0
26/08:30am 10.3 6.6 9.4 94 0.5 N 19 26 10 14 1011.3 1011.2 7.8
26/08:00am 9.9 7.3 9.4 97 0.3 N 13 20 7 11 1011.7 1011.6 6.8
26/07:30am 10.1 7.9 9.2 94 0.5 NNE 11 17 6 9 1011.1 1011.0 4.2
26/07:00am 10.2 8.4 9.3 94 0.5 NNE 9 17 5 9 1010.5 1010.4 3.0
26/06:30am 10.4 8.1 9.0 91 0.7 NNE 11 17 6 9 1010.8 1010.7 2.8
26/06:00am 10.5 8.2 9.1 91 0.7 NNE 11 17 6 9 1011.3 1011.2 2.6
26/05:30am 10.7 7.5 8.6 87 1.0 N 15 20 8 11 1011.9 1011.8 1.8
26/05:00am 11.0 8.9 8.4 84 1.3 NNE 9 15 5 8 1011.7 1011.6 0.6
26/04:30am 10.7 8.3 8.5 86 1.1 NNE 11 15 6 8 1012.0 1011.9 0.6
26/04:00am 11.0 8.9 8.4 84 1.3 N 9 13 5 7 1013.1 1013.0 0.4
26/03:30am 10.8 8.4 8.7 87 1.0 NE 11 15 6 8 1012.6 1012.5 0.4
26/03:00am 11.3 9.6 8.3 82 1.5 N 7 7 4 4 1013.7 1013.5 0.2
26/02:30am 11.4 9.3 8.4 82 1.5 NW 9 11 5 6 1014.4 1014.3 0.0
26/02:00am 11.8 8.8 7.5 75 2.1 NNE 13 19 7 10 1013.1 1013.0 0.0
26/01:30am 11.7 9.1 7.8 77 1.9 NE 11 15 6 8 1013.5 1013.3 0.0
26/01:00am 12.0 10.0 7.3 73 2.3 N 7 9 4 5 1013.9 1013.7 0.0
26/12:30am 12.2 9.8 6.9 70 2.6 NNE 9 11 5 6 1013.7 1013.5 0.0
26/12:00am 12.1 8.9 6.8 70 2.6 NNE 13 17 7 9 1013.6 1013.4 0.0
 
Date/Time
EST
Temp
°C
App
Temp
°C
Dew
Point
Rel
Hum
%
Delta-T
°C
Wind Press
QNH
hPa
Press
MSL
hPa
Rain
since 9 am
mm
Dir
 
Spd
km/h
Gust
km/h
Spd
kts
Gust
kts
25/11:30pm 12.0 9.2 6.9 71 2.5 NNE 11 15 6 8 1014.3 1014.1 0.0
25/11:00pm 11.9 9.5 7.0 72 2.4 NNE 9 13 5 7 1014.8 1014.7 0.0
25/10:30pm 11.3 8.9 7.0 75 2.1 NE 9 11 5 6 1015.0 1014.9 0.0
25/10:00pm 11.3 9.9 7.2 76 2.0 NE 4 9 2 5 1015.8 1015.7 0.0
25/09:30pm 11.8 9.8 7.1 73 2.3 NNE 7 9 4 5 1016.3 1016.2 0.0
25/09:00pm 9.6 8.9 7.0 84 1.2 CALM 0 4 0 2 1016.4 1016.3 0.0
25/08:30pm 9.5 8.6 6.2 80 1.5 CALM 0 0 0 0 1016.1 1016.0 0.0
25/08:00pm 10.5 8.6 6.5 76 1.9 NE 6 9 3 5 1015.9 1015.8 0.0
25/07:30pm 10.2 9.4 6.4 77 1.8 CALM 0 0 0 0 1015.9 1015.8 0.0
25/07:00pm 10.8 10.0 6.6 75 2.0 CALM 0 0 0 0 1016.1 1016.0 0.0
25/06:30pm 10.3 9.2 5.3 71 2.3 CALM 0 0 0 0 1016.3 1016.2 0.0
25/06:00pm 13.4 11.1 5.8 60 3.6 N 7 9 4 5 1016.2 1016.1 0.0
25/05:30pm 14.1 11.5 6.0 58 3.9 NNE 9 13 5 7 1015.9 1015.8 0.0
25/05:00pm 14.5 12.3 6.3 58 4.0 NNW 7 9 4 5 1016.1 1016.0 0.0
25/04:30pm 15.0 12.4 6.3 56 4.2 NNW 9 13 5 7 1016.1 1016.0 0.0
25/04:00pm 17.2 13.8 5.8 47 5.6 NNW 13 19 7 10 1016.2 1016.1 0.0
25/03:30pm 17.7 14.3 5.9 46 5.8 NNW 13 19 7 10 1016.2 1016.1 0.0
25/03:00pm 17.7 15.1 5.9 46 5.8 N 9 13 5 7 1016.0 1015.9 0.0
25/02:30pm 18.6 16.2 7.1 47 5.9 NNW 9 19 5 10 1016.4 1016.3 0.0
25/02:00pm 17.5 15.0 6.4 48 5.5 NNW 9 17 5 9 1016.7 1016.6 0.0
25/01:30pm 17.0 14.6 7.1 52 5.0 WNW 9 13 5 7 1017.1 1017.0 0.0
25/01:00pm 17.6 14.7 6.5 48 5.5 NNW 11 19 6 10 1017.5 1017.4 0.0
25/12:30pm 17.3 15.2 6.8 50 5.3 NE 7 13 4 7 1017.7 1017.6 0.0
25/12:00pm 16.9 15.0 7.5 54 4.8 NE 7 13 4 7 1018.5 1018.4 0.0
25/11:30am 16.4 14.7 7.6 56 4.5 N 6 9 3 5 1019.2 1019.1 0.0
25/11:00am 16.1 14.3 7.1 55 4.5 E 6 9 3 5 1020.0 1019.9 0.0
25/10:30am 14.8 13.1 7.4 61 3.7 N 6 9 3 5 1020.1 1020.0 0.0
25/10:00am 13.7 12.0 8.5 71 2.6 ENE 7 11 4 6 1020.2 1020.1 0.0
25/09:30am 11.9 10.3 8.9 82 1.5 ENE 7 11 4 6 1020.5 1020.4 0.0
25/09:00am 10.1 8.7 8.9 92 0.6 ENE 6 9 3 5 1020.8 1020.7 0.0
25/08:30am 8.3 6.7 8.2 99 0.0 ENE 6 9 3 5 1020.8 1020.7 0.0
25/08:00am 4.8 2.9 4.7 99 0.0 ENE 4 7 2 4 1020.8 1020.7 0.0
25/07:30am 1.9 0.2 1.8 99 0.0 CALM 0 0 0 0 1020.8 1020.7 0.0
25/07:00am 0.9 -1.0 0.8 99 0.0 CALM 0 0 0 0 1020.5 1020.4 0.0
25/06:30am 1.9 0.2 1.8 99 0.0 CALM 0 0 0 0 1020.1 1020.0 0.0
25/06:00am 2.3 0.7 2.2 99 0.0 CALM 0 0 0 0 1020.2 1020.1 0.0
25/05:30am 2.4 0.8 2.3 99 0.0 CALM 0 0 0 0 1020.1 1020.0 0.0
25/05:00am 2.6 1.0 2.5 99 0.0 CALM 0 0 0 0 1019.9 1019.8 0.0
25/04:30am 1.9 0.2 1.8 99 0.0 CALM 0 0 0 0 1019.9 1019.8 0.0
25/04:00am 2.7 1.1 2.4 98 0.1 CALM 0 0 0 0 1019.6 1019.5 0.0
25/03:30am 2.7 1.1 2.4 98 0.1 CALM 0 0 0 0 1019.6 1019.5 0.0
25/03:00am 3.4 2.0 3.3 99 0.0 CALM 0 0 0 0 1020.0 1019.9 0.0
25/02:30am 3.5 2.0 3.2 98 0.1 CALM 0 0 0 0 1020.3 1020.2 0.0
25/02:00am 3.6 2.2 3.3 98 0.1 CALM 0 0 0 0 1020.5 1020.4 0.0
25/01:30am 3.6 2.2 3.3 98 0.1 CALM 0 0 0 0 1020.8 1020.7 0.0
25/01:00am 4.1 2.7 3.8 98 0.1 CALM 0 0 0 0 1021.1 1021.0 0.0
25/12:30am 4.7 3.1 4.3 97 0.2 ENE 2 7 1 4 1021.3 1021.2 0.0
25/12:00am 4.4 3.0 3.7 95 0.3 CALM 0 0 0 0 1021.4 1021.3 0.0
 
Date/Time
EST
Temp
°C
App
Temp
°C
Dew
Point
Rel
Hum
%
Delta-T
°C
Wind Press
QNH
hPa
Press
MSL
hPa
Rain
since 9 am
mm
Dir
 
Spd
km/h
Gust
km/h
Spd
kts
Gust
kts
24/11:30pm 5.4 4.2 4.7 95 0.3 CALM 0 0 0 0 1021.5 1021.4 0.0
24/11:00pm 5.7 4.5 4.7 93 0.4 CALM 0 0 0 0 1021.3 1021.2 0.0
24/10:30pm 5.4 4.0 3.7 89 0.7 CALM 0 0 0 0 1021.6 1021.5 0.0
24/10:00pm 7.2 6.1 5.3 88 0.8 CALM 0 0 0 0 1021.8 1021.7 0.0
24/09:30pm 7.7 6.8 6.2 90 0.7 CALM 0 0 0 0 1021.9 1021.8 0.0
24/09:00pm 7.6 6.7 5.9 89 0.8 CALM 0 0 0 0 1021.9 1021.8 0.0
24/08:30pm 7.8 6.7 5.3 84 1.1 CALM 0 6 0 3 1021.8 1021.7 0.0
24/08:00pm 9.3 7.1 6.2 81 1.4 S 7 9 4 5 1021.6 1021.5 0.0
24/07:30pm 10.5 8.0 6.6 77 1.9 SSW 9 11 5 6 1021.5 1021.4 0.0
24/07:00pm 9.5 7.2 5.9 78 1.7 SSW 7 9 4 5 1021.5 1021.4 0.0
24/06:30pm 10.1 7.9 6.1 76 1.9 SW 7 9 4 5 1021.3 1021.2 0.0
24/06:00pm 11.5 9.1 6.8 73 2.3 SW 9 11 5 6 1021.1 1021.0 0.0
24/05:30pm 12.1 9.2 6.4 68 2.7 SW 11 13 6 7 1020.8 1020.7 0.0
24/05:00pm 14.0 10.8 6.8 62 3.5 WSW 13 17 7 9 1020.7 1020.6 0.0
24/04:30pm 15.4 11.4 6.7 56 4.3 SW 17 22 9 12 1020.6 1020.5 0.0
24/04:00pm 16.2 11.6 6.6 53 4.7 SW 20 26 11 14 1020.6 1020.5 0.0
24/03:30pm 16.3 11.9 6.7 53 4.8 SW 19 26 10 14 1020.6 1020.5 0.0
24/03:00pm 17.0 12.8 7.4 53 4.8 SW 19 32 10 17 1020.7 1020.6 0.0
24/02:30pm 17.1 11.4 6.6 50 5.2 SW 26 35 14 19 1020.9 1020.8 0.0
24/02:00pm 17.2 12.3 6.7 50 5.2 SSW 22 35 12 19 1021.0 1020.9 0.0
24/01:30pm 17.7 12.9 7.4 51 5.2 SSW 22 35 12 19 1021.2 1021.1 0.0
24/01:00pm 17.5 12.7 7.3 51 5.2 SSW 22 32 12 17 1021.5 1021.4 0.0
24/12:30pm 17.0 12.6 7.4 53 4.9 SW 20 32 11 17 1021.9 1021.8 0.0

Other Formats:

Comma delimited format used in spreadsheet applications
http://www.bom.gov.au/fwo/IDN60801/IDN60801.95710.axf

JavaScript Object Notation format (JSON) in row-major order
http://www.bom.gov.au/fwo/IDN60801/IDN60801.95710.json